Airfield :
LOGIN :

Register | Disclaimer

   EN    FR    IT 

 










Legend :    VFR   Marginal VFR   IFR   Intensive IFR   Very Intensive IFR
Visi :
Ceiling :
>= 8 km
>= 3000ft
5 to 8 km
1000 to 3000 ft
1500m to 5 km
500 to 1000 ft
800 to 1500m
200 to 500 ft
< 800m
< 200 ft
Symbols :   Thunderstorms  Fog  Heavy snow  Heavy precipitations  Wind > 20 kt
SIGMETs :     Misc.  Thunderstorms  Icing  Turbulence  Mountain Waves  Volcanic Ashes






- Airport Elevation : 1686 ft
- IATA code : MUW


DAOV - Ghriss

CURRENT METAR :
  • 191700Z 04005KT 360V070 CAVOK 34/// Q1017

EXPIRED METARs :
  • 191600Z 01007KT 340V040 CAVOK 35/// Q1017
  • 191500Z 01008KT 330V040 CAVOK 34/M03 Q1017

TAF TAF DAOV
Valid from the 19 at 15:00 until the 20 at 00:00 UTC


191400Z 1915/1924 36011KT CAVOK
BECMG 1920/1923 VRB02KT



MET'MAP, your aeronautical weather chart ! - Copyright ORBIFLY December 2007 - Disclaimer

ORBIFLY MET'MAP TEAM :

Programming & Development : Alexandra Zaïnal
Original concept : Baudouin d'Aumeries
Technical & hardware support : Manuel Goepfert
Assistance : Marc-Olivier Méhu




SOURCES & CREDITS :

   NOAA